Time;durP1;ratioP1;P1;durP2;ratioP2;P2;SDS_P1;SDS_P2;PMS_P1;PMS_P2;Temp;Humidity;BMP_temperature;BMP_pressure;BME280_temperature;BME280_humidity;BME280_pressure;Samples;Min_cycle;Max_cycle;Signal;HPM_P1;HPM_P2
2022/05/09 00:00:07;;;;;;;37.42;5.43;;;32.70;16.20;;;;;;5036230;28;20506;-66
2022/05/09 00:02:33;;;;;;;36.67;4.85;;;32.40;16.50;;;;;;5034337;28;20090;-68
2022/05/09 00:05:00;;;;;;;37.13;5.97;;;32.30;16.90;;;;;;5031323;28;20101;-68
2022/05/09 00:07:26;;;;;;;31.88;4.38;;;32.00;17.30;;;;;;5039619;28;20452;-67
2022/05/09 00:09:52;;;;;;;47.90;5.05;;;32.10;17.30;;;;;;5032885;28;20101;-68
2022/05/09 00:12:19;;;;;;;31.58;4.68;;;31.90;17.60;;;;;;5033492;28;20069;-66
2022/05/09 00:14:45;;;;;;;41.15;5.55;;;31.70;18.30;;;;;;5033561;28;20068;-68
2022/05/09 00:17:11;;;;;;;27.35;4.72;;;31.70;19.20;;;;;;5036614;28;21254;-66
2022/05/09 00:19:38;;;;;;;42.97;6.10;;;31.60;18.50;;;;;;5039616;28;20504;-67
2022/05/09 00:22:05;;;;;;;57.10;7.75;;;31.50;19.40;;;;;;5029881;28;20044;-66
2022/05/09 00:24:31;;;;;;;48.97;7.15;;;31.40;20.10;;;;;;5031148;28;20541;-66
2022/05/09 00:26:57;;;;;;;53.97;7.22;;;31.20;19.70;;;;;;5045443;28;20099;-65
2022/05/09 00:29:25;;;;;;;59.25;7.38;;;31.20;20.60;;;;;;5038346;28;20054;-67
2022/05/09 00:31:55;;;;;;;25.42;4.82;;;31.40;20.10;;;;;;5038221;28;20054;-65
2022/05/09 00:34:23;;;;;;;37.05;5.95;;;31.20;19.70;;;;;;5032429;28;20117;-66
2022/05/09 00:36:52;;;;;;;40.83;5.18;;;31.30;20.10;;;;;;5032406;28;20089;-64
2022/05/09 00:39:19;;;;;;;75.05;9.07;;;31.30;20.10;;;;;;5040394;28;20089;-66
2022/05/09 00:41:45;;;;;;;61.67;8.93;;;31.10;21.50;;;;;;5039886;28;20049;-65
2022/05/09 00:44:26;;;;;;;70.20;8.85;;;30.70;21.80;;;;;;5040256;28;20047;-64
2022/05/09 00:46:55;;;;;;;49.28;7.93;;;30.90;21.90;;;;;;5034110;28;20130;-67
2022/05/09 00:49:50;;;;;;;54.75;7.53;;;31.00;21.70;;;;;;5032195;28;20074;-65
2022/05/09 00:52:29;;;;;;;46.67;6.53;;;30.70;21.60;;;;;;5056829;28;20068;-67
2022/05/09 00:55:01;;;;;;;42.05;6.18;;;30.60;21.70;;;;;;5036277;28;20127;-66
2022/05/09 00:57:29;;;;;;;35.55;6.38;;;30.40;21.60;;;;;;5036785;28;20060;-66
2022/05/09 01:00:00;;;;;;;43.97;7.43;;;30.20;21.50;;;;;;5015317;28;20159;-64
2022/05/09 01:02:28;;;;;;;57.15;7.35;;;30.10;22.20;;;;;;5045951;28;20139;-66
2022/05/09 01:05:00;;;;;;;41.28;6.40;;;30.00;22.00;;;;;;5028733;28;20125;-63
2022/05/09 01:07:30;;;;;;;43.45;6.07;;;29.80;22.20;;;;;;5042681;28;20511;-65
2022/05/09 01:09:58;;;;;;;48.67;8.23;;;29.70;22.40;;;;;;5033498;28;20062;-66
2022/05/09 01:12:35;;;;;;;54.05;6.25;;;29.50;22.80;;;;;;5036344;28;20465;-67
2022/05/09 01:15:09;;;;;;;37.30;6.13;;;29.40;23.10;;;;;;5040196;28;20540;-67
2022/05/09 01:17:39;;;;;;;26.50;5.20;;;29.30;23.40;;;;;;5035206;28;20045;-68
2022/05/09 01:20:11;;;;;;;31.33;5.53;;;29.20;23.40;;;;;;5042224;28;20051;-68
2022/05/09 01:22:39;;;;;;;46.90;6.25;;;29.00;23.20;;;;;;5031867;28;20066;-70
2022/05/09 01:25:12;;;;;;;48.58;6.75;;;28.80;23.50;;;;;;5034261;28;20116;-69
2022/05/09 01:27:41;;;;;;;42.85;6.38;;;28.80;24.10;;;;;;5034571;28;20081;-70
2022/05/09 01:30:22;;;;;;;43.80;5.18;;;28.80;23.70;;;;;;5027461;28;20417;-67
2022/05/09 01:32:54;;;;;;;31.63;6.22;;;28.60;23.60;;;;;;5039484;28;20066;-67
2022/05/09 01:35:22;;;;;;;30.20;4.47;;;28.70;23.50;;;;;;5038268;28;20622;-67
2022/05/09 01:37:59;;;;;;;29.13;4.93;;;28.70;22.90;;;;;;5032842;28;20180;-68
2022/05/09 01:40:25;;;;;;;;;;;28.50;23.10;;;;;;5026828;28;20074;-68
2022/05/09 01:42:51;;;;;;;27.25;5.35;;;28.30;23.50;;;;;;5041453;28;19978;-68
2022/05/09 01:45:18;;;;;;;25.50;5.28;;;28.30;23.70;;;;;;5034877;28;20155;-67
2022/05/09 01:50:28;;;;;;;34.30;5.05;;;28.10;23.70;;;;;;5033367;28;21617;-69
2022/05/09 01:52:55;;;;;;;26.00;4.68;;;27.90;23.80;;;;;;5037277;28;20090;-72
2022/05/09 01:55:22;;;;;;;33.58;4.90;;;27.80;23.60;;;;;;5054676;28;20525;-70
2022/05/09 01:57:51;;;;;;;27.90;4.25;;;27.60;23.60;;;;;;5032725;28;20070;-69
2022/05/09 02:00:18;;;;;;;35.13;4.35;;;27.40;23.50;;;;;;5049910;28;20085;-65
2022/05/09 02:02:45;;;;;;;25.90;4.25;;;27.50;23.50;;;;;;5040655;28;20074;-70
2022/05/09 02:05:12;;;;;;;23.85;4.50;;;27.30;23.40;;;;;;5041883;28;20060;-69
2022/05/09 02:07:38;;;;;;;17.52;4.07;;;27.10;23.50;;;;;;5036615;28;20546;-69
2022/05/09 02:10:05;;;;;;;27.63;4.72;;;27.10;23.70;;;;;;5035307;28;20574;-69
2022/05/09 02:12:32;;;;;;;24.42;4.75;;;27.00;24.00;;;;;;5035921;28;20431;-65
2022/05/09 02:14:58;;;;;;;25.38;5.05;;;27.00;24.30;;;;;;5035005;28;20116;-69
2022/05/09 02:17:24;;;;;;;21.05;4.72;;;26.50;24.80;;;;;;5039487;28;20079;-69
2022/05/09 02:19:51;;;;;;;32.30;4.90;;;26.50;25.20;;;;;;5032864;28;20436;-68
2022/05/09 02:22:18;;;;;;;17.70;3.97;;;26.50;25.30;;;;;;5042490;28;20438;-69
2022/05/09 02:24:45;;;;;;;61.10;6.18;;;26.40;25.20;;;;;;5040576;28;20119;-72
2022/05/09 02:27:11;;;;;;;35.35;4.90;;;26.20;25.20;;;;;;5040955;28;20422;-68
2022/05/09 02:29:39;;;;;;;31.58;4.53;;;26.00;25.20;;;;;;5035282;28;20076;-72
2022/05/09 02:32:07;;;;;;;27.63;5.35;;;26.00;25.50;;;;;;5036046;28;20160;-68
2022/05/09 02:34:33;;;;;;;34.53;5.70;;;25.90;26.10;;;;;;5049174;28;20450;-68
2022/05/09 02:37:00;;;;;;;39.10;5.63;;;25.80;26.20;;;;;;5035681;28;20072;-67
2022/05/09 02:39:26;;;;;;;35.38;5.30;;;25.70;26.40;;;;;;5038913;28;20064;-65
2022/05/09 02:41:53;;;;;;;85.85;8.85;;;25.60;26.40;;;;;;5035881;28;20068;-67
2022/05/09 02:44:20;;;;;;;46.45;6.20;;;25.40;26.50;;;;;;5042558;28;20067;-67
2022/05/09 02:46:46;;;;;;;36.97;5.82;;;25.20;26.60;;;;;;5037237;28;20105;-67
2022/05/09 02:49:12;;;;;;;47.80;6.70;;;25.20;26.60;;;;;;5037129;28;21196;-68
2022/05/09 02:51:39;;;;;;;47.95;7.65;;;25.00;27.00;;;;;;5035618;28;20127;-68
2022/05/09 02:54:05;;;;;;;49.33;7.05;;;25.00;27.30;;;;;;5039413;28;20418;-67
2022/05/09 02:56:32;;;;;;;49.53;7.15;;;24.90;27.60;;;;;;5045884;28;20160;-67
2022/05/09 02:58:58;;;;;;;57.67;9.43;;;24.80;27.80;;;;;;5039378;28;20116;-69
2022/05/09 03:01:24;;;;;;;67.28;8.43;;;24.70;28.00;;;;;;5036011;28;20085;-66
2022/05/09 03:06:36;;;;;;;47.75;7.22;;;24.60;28.70;;;;;;5033085;28;20147;-67
2022/05/09 03:09:03;;;;;;;83.78;9.98;;;24.40;29.60;;;;;;5033297;28;20071;-69
2022/05/09 03:11:30;;;;;;;54.45;8.30;;;24.10;29.60;;;;;;5036148;28;20166;-68
2022/05/09 03:13:57;;;;;;;59.42;9.07;;;24.20;29.70;;;;;;5039732;28;20081;-66
2022/05/09 03:16:23;;;;;;;56.20;9.05;;;24.20;29.70;;;;;;5039868;28;20121;-67
2022/05/09 03:18:51;;;;;;;65.72;10.75;;;24.10;29.60;;;;;;5036613;28;20068;-68
2022/05/09 03:21:18;;;;;;;59.42;8.90;;;24.00;29.90;;;;;;5040187;28;20084;-68
2022/05/09 03:23:45;;;;;;;54.70;8.52;;;24.00;30.30;;;;;;5035408;28;20698;-68
2022/05/09 03:26:12;;;;;;;50.75;8.13;;;23.90;30.30;;;;;;5033955;28;20097;-67
2022/05/09 03:28:38;;;;;;;44.22;7.43;;;23.80;30.60;;;;;;5035954;28;20093;-69
2022/05/09 03:31:05;;;;;;;46.67;6.05;;;23.80;30.90;;;;;;5035661;28;20088;-68
2022/05/09 03:33:31;;;;;;;41.65;6.90;;;23.70;31.10;;;;;;5035557;28;20104;-69
2022/05/09 03:35:59;;;;;;;32.13;5.57;;;23.70;31.30;;;;;;5047298;28;20107;-69
2022/05/09 03:38:26;;;;;;;36.72;5.80;;;23.60;31.50;;;;;;5044806;28;20115;-68
2022/05/09 03:40:52;;;;;;;39.20;5.85;;;23.50;31.60;;;;;;5053834;28;20069;-68
2022/05/09 03:43:18;;;;;;;30.00;5.60;;;23.30;31.60;;;;;;5037923;28;20531;-67
2022/05/09 03:45:48;;;;;;;36.75;5.72;;;23.30;31.80;;;;;;5035803;28;20080;-67
2022/05/09 03:48:14;;;;;;;36.65;6.88;;;23.30;32.00;;;;;;5045130;28;20509;-66
2022/05/09 03:50:41;;;;;;;50.80;8.00;;;23.20;32.40;;;;;;5033395;28;20463;-68
2022/05/09 03:53:07;;;;;;;42.72;7.82;;;23.20;32.80;;;;;;5033924;28;20183;-68
2022/05/09 03:55:34;;;;;;;54.78;6.75;;;22.90;33.30;;;;;;5033651;28;20088;-68
2022/05/09 03:58:00;;;;;;;44.58;6.57;;;22.90;33.40;;;;;;5032379;28;20081;-68
2022/05/09 04:00:32;;;;;;;33.63;6.07;;;22.90;33.10;;;;;;5019485;28;20069;-68
2022/05/09 04:02:59;;;;;;;45.67;6.70;;;22.90;33.10;;;;;;5039704;28;20079;-66
2022/05/09 04:05:30;;;;;;;45.60;6.28;;;22.90;33.00;;;;;;5047475;28;20088;-67
2022/05/09 04:07:58;;;;;;;35.85;6.50;;;22.80;32.80;;;;;;5040498;28;20076;-67
2022/05/09 04:10:28;;;;;;;33.92;6.20;;;22.80;32.60;;;;;;5035921;28;20118;-67
2022/05/09 04:12:54;;;;;;;34.75;5.97;;;22.80;32.40;;;;;;5037139;28;20072;-66
2022/05/09 04:18:07;;;;;;;38.75;6.13;;;22.70;31.90;;;;;;5037478;28;20133;-68
2022/05/09 04:20:33;;;;;;;36.55;6.97;;;22.70;31.60;;;;;;5030575;28;20076;-67
2022/05/09 04:23:00;;;;;;;47.90;8.18;;;22.60;31.40;;;;;;5038295;28;20077;-67
2022/05/09 04:25:31;;;;;;;44.13;7.32;;;22.60;31.20;;;;;;5032688;28;20088;-67
2022/05/09 04:27:59;;;;;;;49.05;7.72;;;22.50;31.10;;;;;;5032367;28;20167;-67
2022/05/09 04:30:26;;;;;;;55.58;7.50;;;22.50;31.20;;;;;;5034292;28;21584;-65
2022/05/09 04:32:52;;;;;;;66.78;7.93;;;22.40;31.20;;;;;;5032330;28;20179;-67
2022/05/09 04:35:20;;;;;;;70.28;9.27;;;22.40;31.40;;;;;;5029935;28;20522;-67
2022/05/09 04:37:48;;;;;;;85.47;10.57;;;22.30;31.50;;;;;;5037404;28;20092;-67
2022/05/09 04:40:20;;;;;;;87.38;11.13;;;22.20;31.90;;;;;;5032392;28;20130;-67
2022/05/09 04:42:47;;;;;;;82.18;12.02;;;22.20;32.30;;;;;;5031136;28;20108;-67
2022/05/09 04:45:14;;;;;;;92.25;11.23;;;22.10;32.90;;;;;;5032262;28;20462;-66
2022/05/09 04:47:42;;;;;;;67.82;8.40;;;22.10;33.10;;;;;;5037056;28;20072;-66
2022/05/09 04:50:11;;;;;;;60.53;8.60;;;22.00;33.40;;;;;;5042714;28;20100;-69
2022/05/09 04:52:37;;;;;;;42.20;6.57;;;22.00;33.80;;;;;;5035488;28;20116;-67
2022/05/09 04:55:04;;;;;;;30.73;5.60;;;22.00;34.10;;;;;;5031584;28;20085;-70
2022/05/09 04:57:31;;;;;;;27.65;4.65;;;21.90;34.50;;;;;;5043714;28;20072;-68
2022/05/09 04:59:58;;;;;;;18.90;4.05;;;21.80;35.10;;;;;;5031641;28;20076;-69
2022/05/09 05:02:24;;;;;;;24.35;4.88;;;21.60;35.70;;;;;;5033739;28;20069;-70
2022/05/09 05:04:51;;;;;;;34.17;5.50;;;21.50;36.20;;;;;;5033853;28;20526;-69
2022/05/09 05:07:17;;;;;;;22.35;4.32;;;21.60;36.40;;;;;;5033593;28;20470;-67
2022/05/09 05:09:43;;;;;;;28.48;5.22;;;21.50;36.80;;;;;;5033889;28;20160;-68
2022/05/09 05:12:10;;;;;;;26.65;5.07;;;21.50;37.00;;;;;;5033694;28;20072;-69
2022/05/09 05:14:36;;;;;;;28.60;5.18;;;21.50;37.50;;;;;;5033681;28;20096;-68
2022/05/09 05:17:03;;;;;;;33.92;6.07;;;21.40;37.70;;;;;;5041960;28;20442;-67
2022/05/09 05:19:33;;;;;;;27.85;5.10;;;21.30;38.20;;;;;;5040783;28;20080;-67
2022/05/09 05:22:02;;;;;;;43.67;5.80;;;21.20;38.60;;;;;;5037490;28;20084;-68
2022/05/09 05:24:28;;;;;;;39.35;5.35;;;21.10;39.00;;;;;;5044863;28;20485;-67
2022/05/09 05:26:56;;;;;;;35.60;5.20;;;21.10;39.10;;;;;;5044097;28;20077;-67
2022/05/09 05:29:24;;;;;;;36.25;5.68;;;21.00;39.10;;;;;;5042281;28;20081;-71
2022/05/09 05:31:50;;;;;;;28.67;6.00;;;21.00;39.10;;;;;;5040258;28;20080;-66
2022/05/09 05:34:17;;;;;;;39.45;5.90;;;21.00;39.10;;;;;;5036749;28;20069;-68
2022/05/09 05:36:44;;;;;;;51.83;5.57;;;21.00;38.60;;;;;;5037000;28;20073;-67
2022/05/09 05:39:15;;;;;;;50.08;5.65;;;20.90;38.60;;;;;;5035546;28;20081;-70
2022/05/09 05:41:45;;;;;;;39.20;5.35;;;20.90;38.70;;;;;;5036384;28;20065;-63
2022/05/09 05:44:12;;;;;;;27.13;5.32;;;20.90;38.40;;;;;;5036899;28;20084;-69
2022/05/09 05:46:40;;;;;;;34.70;5.60;;;20.90;38.40;;;;;;5039911;28;20134;-65
2022/05/09 05:49:07;;;;;;;35.05;4.40;;;20.90;38.40;;;;;;5036170;28;20505;-66
2022/05/09 05:51:33;;;;;;;67.15;6.22;;;20.80;38.50;;;;;;5037089;28;20069;-65
2022/05/09 05:54:00;;;;;;;64.47;6.53;;;20.80;38.40;;;;;;5043691;28;20100;-66
2022/05/09 05:56:26;;;;;;;50.35;5.63;;;20.80;38.00;;;;;;5044317;28;20077;-64
2022/05/09 05:58:53;;;;;;;50.97;6.25;;;20.80;37.60;;;;;;5036057;28;20131;-68
2022/05/09 06:01:19;;;;;;;44.22;5.10;;;20.80;37.60;;;;;;5038456;28;20072;-61
2022/05/09 06:03:45;;;;;;;;;;;20.90;37.40;;;;;;5037371;28;20435;-61
2022/05/09 06:06:13;;;;;;;34.15;5.75;;;20.90;37.80;;;;;;5037277;28;20345;-63
2022/05/09 06:08:41;;;;;;;37.03;4.95;;;20.80;38.10;;;;;;5037489;28;20068;-62
2022/05/09 06:11:08;;;;;;;33.10;4.90;;;20.80;38.10;;;;;;5040388;28;20439;-61
2022/05/09 06:13:34;;;;;;;33.55;4.78;;;20.80;37.80;;;;;;5038261;28;20072;-62
2022/05/09 06:16:00;;;;;;;34.88;4.95;;;20.80;37.50;;;;;;5030268;28;20079;-61
2022/05/09 06:18:27;;;;;;;44.65;4.97;;;20.80;37.50;;;;;;5041636;28;20490;-61
2022/05/09 06:20:53;;;;;;;35.75;5.38;;;20.90;37.30;;;;;;5045961;28;20075;-63
2022/05/09 06:23:20;;;;;;;27.30;4.68;;;20.80;37.10;;;;;;5037132;28;20469;-63
2022/05/09 06:25:48;;;;;;;33.75;4.78;;;20.90;37.00;;;;;;5036990;28;20183;-59
2022/05/09 06:28:16;;;;;;;27.67;5.00;;;20.80;36.90;;;;;;5044304;28;20088;-63
2022/05/09 06:30:43;;;;;;;21.90;4.35;;;20.80;36.90;;;;;;5032243;28;20523;-64
2022/05/09 06:33:10;;;;;;;26.80;4.18;;;20.70;36.70;;;;;;5036378;28;20102;-62
2022/05/09 06:35:45;;;;;;;35.83;4.68;;;20.70;36.60;;;;;;5037480;28;20099;-62
2022/05/09 06:38:15;;;;;;;29.38;4.43;;;20.60;36.30;;;;;;5036615;28;20084;-63
2022/05/09 06:40:42;;;;;;;29.70;4.88;;;20.60;35.90;;;;;;5039355;28;20088;-60
2022/05/09 06:43:08;;;;;;;23.20;3.55;;;20.70;35.30;;;;;;5039405;28;20156;-60
2022/05/09 06:45:35;;;;;;;24.88;4.40;;;20.70;34.60;;;;;;5033367;28;20175;-63
2022/05/09 06:48:02;;;;;;;26.38;3.90;;;20.70;34.30;;;;;;5038176;28;20122;-61
2022/05/09 06:50:36;;;;;;;32.33;4.45;;;20.70;34.30;;;;;;5028039;28;20088;-62
2022/05/09 06:53:03;;;;;;;21.80;4.22;;;20.60;34.50;;;;;;5039365;28;20074;-61
2022/05/09 06:55:29;;;;;;;23.58;4.28;;;20.60;34.00;;;;;;5039158;28;20073;-61
2022/05/09 06:57:56;;;;;;;33.35;4.03;;;20.70;34.50;;;;;;5039433;28;20664;-57
2022/05/09 07:00:24;;;;;;;35.63;4.60;;;20.60;33.60;;;;;;5030277;28;21005;-60
2022/05/09 07:02:51;;;;;;;28.15;3.35;;;20.60;33.90;;;;;;5041249;28;20488;-60
2022/05/09 07:05:21;;;;;;;21.65;3.80;;;20.60;33.80;;;;;;5037210;28;20099;-60
2022/05/09 07:07:48;;;;;;;24.85;3.78;;;20.60;34.10;;;;;;5029604;28;20083;-61
2022/05/09 07:10:16;;;;;;;15.88;3.85;;;20.50;34.60;;;;;;5039962;28;20083;-61
2022/05/09 07:12:48;;;;;;;23.08;3.42;;;20.40;35.10;;;;;;5020983;28;20081;-60
2022/05/09 07:15:18;;;;;;;26.90;4.18;;;20.30;35.30;;;;;;5038442;28;20427;-61
2022/05/09 07:17:45;;;;;;;17.15;4.25;;;20.30;35.10;;;;;;5019818;28;20073;-62
2022/05/09 07:20:12;;;;;;;25.77;4.50;;;20.30;34.60;;;;;;5039762;28;20080;-59
2022/05/09 07:22:39;;;;;;;22.55;4.35;;;20.30;34.70;;;;;;5042017;28;20454;-61
2022/05/09 07:25:05;;;;;;;13.88;3.45;;;20.20;34.70;;;;;;5041443;28;20108;-60
2022/05/09 07:27:32;;;;;;;19.20;4.00;;;20.20;35.10;;;;;;5041342;28;20089;-60
2022/05/09 07:29:58;;;;;;;19.00;3.63;;;20.20;34.80;;;;;;5019310;28;20103;-58
2022/05/09 07:32:25;;;;;;;15.65;3.22;;;20.20;34.90;;;;;;5036314;28;20511;-63
2022/05/09 07:34:51;;;;;;;18.75;4.03;;;20.10;35.10;;;;;;5038102;28;20081;-59
2022/05/09 07:37:18;;;;;;;18.55;3.92;;;20.20;35.20;;;;;;5013316;28;20080;-60
2022/05/09 07:39:45;;;;;;;21.00;3.67;;;20.10;35.40;;;;;;5039139;28;20445;-60
2022/05/09 07:42:11;;;;;;;18.75;3.85;;;20.10;35.40;;;;;;5029773;28;20077;-60
2022/05/09 07:44:38;;;;;;;15.50;3.28;;;20.10;35.40;;;;;;5029387;28;20226;-63
2022/05/09 07:47:05;;;;;;;17.05;3.72;;;20.00;35.30;;;;;;5029674;28;20210;-62
2022/05/09 07:49:31;;;;;;;19.15;4.20;;;20.00;35.30;;;;;;5040671;28;20085;-59
2022/05/09 07:51:58;;;;;;;19.02;3.60;;;20.00;35.00;;;;;;5029099;28;20089;-61
2022/05/09 07:54:24;;;;;;;20.67;3.58;;;20.00;34.00;;;;;;5022717;28;20069;-62
2022/05/09 07:56:50;;;;;;;;;;;20.00;33.50;;;;;;5021150;28;20067;-60
2022/05/09 07:59:19;;;;;;;16.85;3.47;;;20.00;32.70;;;;;;5019297;28;19962;-61
2022/05/09 08:01:45;;;;;;;14.23;3.55;;;20.00;32.90;;;;;;5022388;28;20075;-61
2022/05/09 08:04:11;;;;;;;;;;;20.00;33.10;;;;;;5018593;28;20511;-60
2022/05/09 08:06:37;;;;;;;16.58;3.60;;;19.90;33.70;;;;;;5035882;28;20055;-60
2022/05/09 08:09:04;;;;;;;;;;;19.80;35.10;;;;;;5035755;28;20134;-62
2022/05/09 08:11:31;;;;;;;19.13;3.83;;;19.70;35.40;;;;;;5039299;28;19972;-61
2022/05/09 08:13:58;;;;;;;21.17;3.92;;;19.60;35.90;;;;;;5038528;28;20119;-61
2022/05/09 08:16:30;;;;;;;24.35;4.53;;;19.50;35.90;;;;;;5040221;28;20529;-63
2022/05/09 08:18:58;;;;;;;23.55;3.95;;;19.40;36.00;;;;;;5037103;28;20515;-61
2022/05/09 08:21:26;;;;;;;21.80;3.50;;;19.40;35.60;;;;;;5037339;28;20072;-60
2022/05/09 08:23:52;;;;;;;15.77;3.70;;;19.50;35.20;;;;;;5045404;28;20219;-60
2022/05/09 08:26:22;;;;;;;17.27;3.33;;;19.50;34.70;;;;;;5039626;28;20088;-60
2022/05/09 08:28:53;;;;;;;15.20;3.55;;;19.50;34.70;;;;;;5036520;28;20100;-61
2022/05/09 08:31:21;;;;;;;19.15;3.63;;;19.50;34.20;;;;;;5036902;28;20072;-60
2022/05/09 08:33:52;;;;;;;21.33;3.33;;;19.50;34.40;;;;;;5038563;28;20072;-61
2022/05/09 08:39:07;;;;;;;15.07;3.47;;;19.50;33.90;;;;;;5035734;28;20509;-62
2022/05/09 08:42:14;;;;;;;17.65;3.45;;;19.50;33.10;;;;;;5037023;28;20080;-60
2022/05/09 08:44:51;;;;;;;11.40;2.95;;;19.60;33.20;;;;;;5052618;28;20108;-61
2022/05/09 08:48:02;;;;;;;12.27;3.78;;;19.50;33.30;;;;;;5037236;28;20129;-61
2022/05/09 08:50:33;;;;;;;14.05;3.15;;;19.50;33.60;;;;;;5038292;28;20084;-58
2022/05/09 08:53:02;;;;;;;16.75;3.58;;;19.40;33.80;;;;;;5040994;28;20092;-61
2022/05/09 08:55:39;;;;;;;16.98;3.75;;;19.40;34.10;;;;;;5043339;28;20080;-61
2022/05/09 08:58:21;;;;;;;16.25;3.10;;;19.40;34.20;;;;;;5040400;28;20217;-61
2022/05/09 09:00:49;;;;;;;14.07;3.22;;;19.40;33.90;;;;;;5024337;28;20573;-60
2022/05/09 09:03:24;;;;;;;18.52;4.20;;;19.40;33.40;;;;;;5025148;28;20138;-61
2022/05/09 09:05:54;;;;;;;14.07;3.22;;;19.40;32.70;;;;;;5023240;28;20090;-61
2022/05/09 09:08:27;;;;;;;12.98;3.22;;;19.50;31.90;;;;;;5025172;28;20085;-61
2022/05/09 09:11:01;;;;;;;15.00;2.95;;;19.60;31.30;;;;;;5042649;28;20077;-62
2022/05/09 09:13:49;;;;;;;14.23;2.72;;;19.50;30.90;;;;;;5040938;28;20426;-61
2022/05/09 09:16:16;;;;;;;9.52;2.60;;;19.60;30.40;;;;;;5039589;28;20116;-60
2022/05/09 09:18:57;;;;;;;9.30;2.95;;;19.60;30.00;;;;;;5042763;28;20080;-60
2022/05/09 09:21:44;;;;;;;13.32;2.65;;;19.60;30.00;;;;;;5039102;28;20095;-62
2022/05/09 09:24:14;;;;;;;19.55;3.13;;;19.60;30.20;;;;;;5041350;28;20131;-61
2022/05/09 09:26:53;;;;;;;12.02;2.67;;;19.60;30.50;;;;;;5038030;28;20087;-59
2022/05/09 09:29:34;;;;;;;14.65;3.15;;;19.50;31.10;;;;;;5042939;28;20075;-61
2022/05/09 09:32:13;;;;;;;13.32;2.97;;;19.40;31.40;;;;;;5039418;28;20144;-61
2022/05/09 09:34:57;;;;;;;13.30;3.08;;;19.40;31.40;;;;;;5040384;28;20599;-60
2022/05/09 09:37:35;;;;;;;12.52;2.92;;;19.40;31.00;;;;;;5040487;28;20068;-60
2022/05/09 09:40:03;;;;;;;18.05;3.58;;;19.50;30.10;;;;;;5039520;28;20106;-60
2022/05/09 09:42:29;;;;;;;16.42;3.35;;;19.50;29.90;;;;;;5022523;28;20171;-60
2022/05/09 09:44:58;;;;;;;12.32;2.90;;;19.60;29.80;;;;;;5041379;28;20093;-60
2022/05/09 09:47:29;;;;;;;13.18;2.95;;;19.50;29.60;;;;;;5042051;28;20577;-59
2022/05/09 09:50:20;;;;;;;11.75;2.75;;;19.60;29.50;;;;;;5039396;28;20143;-60
2022/05/09 09:52:56;;;;;;;11.77;3.05;;;19.60;29.20;;;;;;5040056;28;20114;-60
2022/05/09 09:55:29;;;;;;;28.55;3.75;;;19.60;29.10;;;;;;5017943;28;20089;-58
2022/05/09 09:57:58;;;;;;;15.93;3.22;;;19.60;29.10;;;;;;5040918;28;20111;-62
2022/05/09 10:00:31;;;;;;;13.75;3.30;;;19.60;29.30;;;;;;5038259;28;20120;-58
2022/05/09 10:03:19;;;;;;;14.68;2.80;;;19.50;29.30;;;;;;5038095;28;20114;-60
2022/05/09 10:05:47;;;;;;;14.90;3.13;;;19.50;29.50;;;;;;5043724;28;20090;-60
2022/05/09 10:08:38;;;;;;;11.55;2.95;;;19.50;29.40;;;;;;5041285;28;20065;-60
2022/05/09 10:11:10;;;;;;;11.70;3.10;;;19.50;29.60;;;;;;5036161;28;20490;-60
2022/05/09 10:13:47;;;;;;;13.85;3.20;;;19.50;29.40;;;;;;5037502;28;20465;-60
2022/05/09 10:16:26;;;;;;;20.35;3.10;;;19.50;29.50;;;;;;5051828;28;20435;-62
2022/05/09 10:18:53;;;;;;;10.90;2.90;;;19.50;29.50;;;;;;5041227;28;20138;-61
2022/05/09 10:26:58;;;;;;;11.20;3.20;;;19.40;29.30;;;;;;5041129;28;20123;-61
2022/05/09 10:29:27;;;;;;;13.20;3.00;;;19.30;29.40;;;;;;5038271;28;20442;-60
2022/05/09 10:31:57;;;;;;;9.00;2.95;;;19.30;29.60;;;;;;5025161;28;20068;-62
2022/05/09 10:34:51;;;;;;;13.82;3.30;;;19.20;29.80;;;;;;5039076;28;20097;-62
2022/05/09 10:37:54;;;;;;;13.52;3.25;;;19.10;30.00;;;;;;5008033;28;20087;-62
2022/05/09 10:40:31;;;;;;;13.95;3.97;;;19.10;30.50;;;;;;4976826;28;20721;-62
2022/05/09 10:43:05;;;;;;;11.02;3.42;;;18.90;30.80;;;;;;4976316;28;20128;-62
2022/05/09 10:45:40;;;;;;;12.30;3.20;;;18.80;30.80;;;;;;4972473;28;20094;-61
2022/05/09 10:48:17;;;;;;;11.00;2.65;;;18.80;30.40;;;;;;4962654;28;20096;-61
2022/05/09 10:51:12;;;;;;;10.10;3.42;;;18.80;30.00;;;;;;4986070;28;20101;-61
2022/05/09 10:53:55;;;;;;;11.40;2.67;;;18.90;29.50;;;;;;4979051;28;20769;-60
2022/05/09 10:56:27;;;;;;;11.52;3.00;;;19.00;28.60;;;;;;4960629;28;20086;-58
2022/05/09 10:59:01;;;;;;;16.60;2.90;;;19.00;28.00;;;;;;4960120;28;20545;-59
2022/05/09 11:01:46;;;;;;;15.55;3.03;;;19.10;27.50;;;;;;4962090;28;20085;-60
2022/05/09 11:04:16;;;;;;;12.20;2.90;;;19.10;27.50;;;;;;4961915;28;20161;-62
2022/05/09 11:07:11;;;;;;;6.50;2.50;;;19.10;27.10;;;;;;4954888;28;20078;-59
2022/05/09 11:10:18;;;;;;;8.38;2.47;;;19.20;26.20;;;;;;4956297;28;20205;-60
2022/05/09 11:13:09;;;;;;;10.25;2.63;;;19.30;25.80;;;;;;4969324;28;20074;-62
2022/05/09 11:16:00;;;;;;;10.82;2.58;;;19.30;25.60;;;;;;4977330;28;20438;-61
2022/05/09 11:18:35;;;;;;;10.05;2.38;;;19.20;25.80;;;;;;5022914;28;20110;-60
2022/05/09 11:21:26;;;;;;;8.68;2.45;;;19.30;26.00;;;;;;5039429;28;20549;-61
2022/05/09 11:24:26;;;;;;;8.57;2.35;;;19.30;25.90;;;;;;5040335;28;20116;-60
2022/05/09 11:27:31;;;;;;;8.52;2.25;;;19.30;26.20;;;;;;5045690;28;20084;-60
2022/05/09 11:30:04;;;;;;;10.25;2.90;;;19.30;26.60;;;;;;5025382;28;20475;-62
2022/05/09 11:32:42;;;;;;;10.48;2.55;;;19.20;27.90;;;;;;5038018;28;20416;-61
2022/05/09 11:35:29;;;;;;;11.48;2.92;;;19.10;29.00;;;;;;5036015;28;20093;-61
2022/05/09 11:38:05;;;;;;;18.02;3.35;;;19.00;29.70;;;;;;5037851;28;20073;-61
2022/05/09 11:40:43;;;;;;;;;;;18.90;30.20;;;;;;5040119;28;20076;-61
2022/05/09 11:43:34;;;;;;;11.88;3.03;;;18.80;31.40;;;;;;5035812;28;19976;-61
2022/05/09 11:46:30;;;;;;;12.80;3.15;;;18.70;32.20;;;;;;5040612;28;20481;-61
2022/05/09 11:49:06;;;;;;;12.05;3.20;;;18.70;33.10;;;;;;5039671;28;20207;-63
2022/05/09 11:51:47;;;;;;;11.38;3.15;;;18.50;34.20;;;;;;5035647;28;20072;-63
2022/05/09 11:54:18;;;;;;;11.82;3.55;;;18.40;34.70;;;;;;5039920;28;20552;-61
2022/05/09 11:56:50;;;;;;;12.77;3.17;;;18.30;34.80;;;;;;5040635;28;20081;-60
2022/05/09 11:59:21;;;;;;;11.02;2.97;;;18.30;34.60;;;;;;5036668;28;20072;-61
2022/05/09 12:01:58;;;;;;;9.45;3.10;;;18.20;34.40;;;;;;5046064;28;20085;-61
2022/05/09 12:04:44;;;;;;;14.93;3.65;;;18.30;34.50;;;;;;5038888;28;20068;-61
2022/05/09 12:07:29;;;;;;;16.13;3.33;;;18.20;34.60;;;;;;5036283;28;20549;-63
2022/05/09 12:10:00;;;;;;;12.13;3.58;;;18.30;34.60;;;;;;5038952;28;20482;-62
2022/05/09 12:12:41;;;;;;;12.27;3.70;;;18.30;34.70;;;;;;5035498;28;20167;-61
2022/05/09 12:15:17;;;;;;;11.98;3.50;;;18.30;34.80;;;;;;5034210;28;20083;-61
2022/05/09 12:17:48;;;;;;;12.05;3.47;;;18.30;34.80;;;;;;5036412;28;20094;-62
2022/05/09 12:20:26;;;;;;;12.45;3.50;;;18.30;34.80;;;;;;5022411;28;20099;-60
2022/05/09 12:22:54;;;;;;;10.88;3.30;;;18.30;34.80;;;;;;5034768;28;20112;-61
2022/05/09 12:25:40;;;;;;;14.18;3.45;;;18.30;34.70;;;;;;5038187;28;20131;-61
2022/05/09 12:28:16;;;;;;;19.90;3.45;;;18.40;34.50;;;;;;5036277;28;20091;-61
2022/05/09 12:31:00;;;;;;;13.95;3.30;;;18.40;34.50;;;;;;5038675;28;20118;-60
2022/05/09 12:33:50;;;;;;;18.63;3.85;;;18.40;34.70;;;;;;5037945;28;20068;-61
2022/05/09 12:36:25;;;;;;;18.95;3.53;;;18.40;34.80;;;;;;5046146;28;20087;-63
2022/05/09 12:38:54;;;;;;;12.20;3.42;;;18.30;34.80;;;;;;5033825;28;20076;-60
2022/05/09 12:41:25;;;;;;;11.02;3.50;;;18.30;34.70;;;;;;5034524;28;20080;-60
2022/05/09 12:44:12;;;;;;;13.02;3.53;;;18.40;34.70;;;;;;5036683;28;20072;-61
2022/05/09 12:47:01;;;;;;;16.92;3.55;;;18.40;34.50;;;;;;5026953;28;20111;-61
2022/05/09 12:49:44;;;;;;;15.50;3.22;;;18.40;34.60;;;;;;5037044;28;20088;-63
2022/05/09 12:52:17;;;;;;;15.48;3.42;;;18.40;34.50;;;;;;5028048;28;20065;-61
2022/05/09 12:57:36;;;;;;;21.38;3.65;;;18.30;34.60;;;;;;5036954;28;20186;-61
2022/05/09 13:00:32;;;;;;;17.15;3.20;;;18.30;35.10;;;;;;5036609;28;20088;-61
2022/05/09 13:03:07;;;;;;;14.95;3.50;;;18.20;35.60;;;;;;5038447;28;20111;-61
2022/05/09 13:05:38;;;;;;;17.83;3.40;;;18.10;36.40;;;;;;5020894;28;20179;-62
2022/05/09 13:08:07;;;;;;;17.98;3.28;;;17.90;36.60;;;;;;5020584;28;20092;-62
2022/05/09 13:10:46;;;;;;;14.05;3.80;;;17.90;36.70;;;;;;5041073;28;20105;-61
2022/05/09 13:13:27;;;;;;;13.15;3.00;;;17.90;36.50;;;;;;5038666;28;20119;-62
2022/05/09 13:15:55;;;;;;;13.60;3.03;;;17.90;36.40;;;;;;5040121;28;20093;-62
2022/05/09 13:18:25;;;;;;;14.75;3.55;;;18.00;36.40;;;;;;5019570;28;20081;-60